createdAt,value
2017-08-08T20:15:08.837Z,1004
2017-08-08T20:15:36.996Z,1000
2017-08-08T20:16:05.622Z,992
2017-08-08T20:16:33.725Z,988
2017-08-08T20:17:01.911Z,988
2017-08-08T20:17:30.114Z,988
2017-08-08T20:17:58.290Z,992
2017-08-08T20:18:26.687Z,992
2017-08-08T20:18:55.451Z,992
2017-08-08T20:19:23.621Z,984
2017-08-08T20:19:51.865Z,980
2017-08-08T20:20:19.863Z,972
2017-08-08T20:20:47.973Z,964
2017-08-08T20:21:16.100Z,952
2017-08-08T20:21:44.310Z,932
2017-08-08T20:22:12.303Z,920
2017-08-08T20:22:40.409Z,900
2017-08-08T20:23:08.492Z,884
2017-08-08T20:23:36.486Z,864
2017-08-08T20:24:04.480Z,852
2017-08-08T20:24:32.455Z,832
2017-08-08T20:25:00.644Z,816
2017-08-08T20:25:28.729Z,796
2017-08-08T20:25:56.789Z,776
2017-08-08T20:26:24.697Z,756
2017-08-08T20:26:52.715Z,732
2017-08-08T20:27:20.897Z,712
2017-08-08T20:27:48.839Z,692
2017-08-08T20:28:17.034Z,668
2017-08-08T20:28:45.115Z,652
2017-08-08T20:29:13.244Z,636
2017-08-08T20:29:41.314Z,624
2017-08-08T20:30:09.421Z,608
2017-08-08T20:30:37.798Z,588
2017-08-08T20:31:06.079Z,572
2017-08-08T20:31:34.073Z,560
2017-08-08T20:32:02.280Z,544
2017-08-08T20:32:30.369Z,536
2017-08-08T20:32:58.528Z,528
2017-08-08T20:33:26.752Z,516
2017-08-08T20:33:55.085Z,500
2017-08-08T20:34:24.047Z,484
2017-08-08T20:34:52.073Z,468
2017-08-08T20:35:20.154Z,456
2017-08-08T20:35:48.329Z,440
2017-08-08T20:36:16.502Z,424
2017-08-08T20:36:44.662Z,408
2017-08-08T20:37:12.758Z,392
2017-08-08T20:37:40.829Z,380
2017-08-08T20:38:08.810Z,364
2017-08-08T20:38:36.997Z,348
2017-08-08T20:39:05.165Z,332
2017-08-08T20:39:32.988Z,312
2017-08-08T20:40:01.110Z,296
2017-08-08T20:40:29.635Z,280
2017-08-08T20:40:57.870Z,268
2017-08-08T20:41:26.023Z,252
2017-08-08T20:41:54.014Z,236
2017-08-08T20:42:22.526Z,228
2017-08-08T20:42:50.517Z,212
2017-08-08T20:43:18.509Z,204
2017-08-08T20:43:46.523Z,196
2017-08-08T20:44:14.690Z,184
2017-08-08T20:44:42.820Z,176
2017-08-08T20:45:10.826Z,168
2017-08-08T20:45:38.814Z,160
2017-08-08T20:46:06.984Z,148
2017-08-08T20:46:35.061Z,136
2017-08-08T20:47:03.212Z,128
2017-08-08T20:47:31.418Z,124
2017-08-08T20:47:59.296Z,116
2017-08-08T20:48:27.477Z,112
2017-08-08T20:48:55.570Z,100
2017-08-08T20:49:23.670Z,92
2017-08-08T20:49:51.754Z,88
2017-08-08T20:50:19.842Z,84
2017-08-08T20:50:47.925Z,76
2017-08-08T20:51:15.987Z,68
2017-08-08T20:51:44.167Z,68
2017-08-08T20:52:12.256Z,64
2017-08-08T20:52:40.413Z,56
2017-08-08T20:53:08.522Z,52
2017-08-08T20:53:36.675Z,52
2017-08-08T20:54:04.843Z,44
2017-08-08T20:54:33.021Z,40
2017-08-08T20:55:01.048Z,36
2017-08-08T20:55:28.940Z,32
2017-08-08T20:55:57.115Z,28
2017-08-08T20:56:25.207Z,28
2017-08-08T20:56:53.383Z,24
2017-08-08T20:57:21.569Z,24
2017-08-08T20:57:49.858Z,20
2017-08-08T20:58:17.803Z,20
2017-08-08T20:58:45.902Z,20
2017-08-08T20:59:13.899Z,12
2017-08-08T20:59:41.982Z,12
2017-08-08T21:00:09.995Z,12
2017-08-08T21:00:38.156Z,8
2017-08-08T21:01:06.313Z,12
2017-08-08T21:01:34.372Z,8
2017-08-08T21:02:02.354Z,8
2017-08-08T21:02:30.404Z,4
2017-08-08T21:02:58.586Z,8
2017-08-08T21:03:26.651Z,4
2017-08-08T21:03:54.541Z,4
2017-08-08T21:04:22.712Z,4
2017-08-08T21:04:50.697Z,4
2017-08-08T21:05:18.794Z,4
2017-08-08T21:05:46.953Z,4
2017-08-08T21:06:15.046Z,4
2017-08-08T21:06:43.198Z,4
2017-08-08T21:07:11.093Z,0
2017-08-08T21:07:39.372Z,0
2017-08-08T21:08:07.457Z,0
2017-08-08T21:08:35.690Z,4
2017-08-08T21:09:03.854Z,4
2017-08-08T21:09:31.758Z,4
2017-08-08T21:09:59.928Z,0
2017-08-08T21:10:27.927Z,0
2017-08-08T21:10:55.930Z,0
2017-08-08T21:11:24.119Z,0
2017-08-08T21:11:52.007Z,0
2017-08-08T21:12:20.169Z,0
2017-08-08T21:12:48.184Z,0
2017-08-08T21:13:16.472Z,0
2017-08-08T21:13:44.562Z,0
2017-08-08T21:14:12.686Z,0
2017-08-08T21:14:40.996Z,0
2017-08-08T21:15:09.089Z,0
2017-08-08T21:15:37.075Z,0
2017-08-08T21:16:05.438Z,0
2017-08-08T21:16:33.517Z,0
2017-08-08T21:17:16.225Z,0
2017-08-08T21:17:44.209Z,0
2017-08-08T21:18:12.431Z,0
2017-08-08T21:18:40.582Z,0
2017-08-08T21:19:08.801Z,0
2017-08-08T21:19:36.886Z,0
2017-08-08T21:20:05.067Z,0
2017-08-08T21:20:33.142Z,0
2017-08-08T21:21:01.310Z,0
2017-08-08T21:21:29.301Z,0
2017-08-08T21:21:57.391Z,0
2017-08-08T21:22:25.362Z,0
2017-08-08T21:22:53.439Z,0
2017-08-08T21:23:21.679Z,0
2017-08-08T21:23:49.740Z,0
2017-08-08T21:24:17.830Z,0
2017-08-08T21:24:46.087Z,0
2017-08-08T21:25:14.241Z,0
2017-08-08T21:25:42.449Z,0
2017-08-08T21:26:10.617Z,0
2017-08-08T21:26:38.860Z,0
2017-08-08T21:27:06.973Z,0
2017-08-08T21:27:35.128Z,0
2017-08-08T21:28:03.201Z,0
2017-08-08T21:28:31.316Z,0
2017-08-08T21:28:59.379Z,0
2017-08-08T21:29:27.350Z,0
2017-08-08T21:29:55.434Z,0
2017-08-08T21:30:23.521Z,0
2017-08-08T21:30:51.505Z,0
2017-08-08T21:31:19.472Z,0
2017-08-08T21:31:47.551Z,0
2017-08-08T21:32:15.620Z,0
2017-08-08T21:32:43.710Z,0
2017-08-08T21:33:11.694Z,0
2017-08-08T21:33:39.761Z,0
2017-08-08T21:34:07.944Z,0
2017-08-08T21:34:36.105Z,0
2017-08-08T21:35:04.271Z,0
2017-08-08T21:35:32.257Z,0
2017-08-08T21:36:00.427Z,0
2017-08-08T21:36:28.587Z,0
2017-08-08T21:36:56.665Z,0
2017-08-08T21:37:24.732Z,0
2017-08-08T21:37:52.888Z,0
2017-08-08T21:38:21.066Z,0
2017-08-08T21:38:49.132Z,0
2017-08-08T21:39:17.231Z,0
2017-08-08T21:39:45.323Z,0
2017-08-08T21:40:13.240Z,0
2017-08-08T21:40:41.254Z,0
2017-08-08T21:41:09.318Z,0
2017-08-08T21:41:37.526Z,0
2017-08-08T21:42:05.607Z,0
2017-08-08T21:42:33.581Z,0
2017-08-08T21:43:01.653Z,0
2017-08-08T21:43:29.629Z,0
2017-08-08T21:43:57.829Z,0
2017-08-08T21:44:25.992Z,0
2017-08-08T21:44:54.084Z,0
2017-08-08T21:45:22.160Z,0
2017-08-08T21:45:50.147Z,0
2017-08-08T21:46:18.343Z,0
2017-08-08T21:46:46.415Z,0
2017-08-08T21:47:14.501Z,0
2017-08-08T21:47:42.703Z,0
2017-08-08T21:48:10.857Z,0
2017-08-08T21:48:39.052Z,0
2017-08-08T21:49:07.236Z,0
2017-08-08T21:49:35.397Z,0
2017-08-08T21:50:03.635Z,0
2017-08-08T21:50:31.803Z,0
2017-08-08T21:50:59.984Z,0
2017-08-08T21:51:28.065Z,0
2017-08-08T21:51:56.045Z,0
2017-08-08T21:52:24.108Z,0
2017-08-08T21:52:52.180Z,0
2017-08-08T21:53:20.247Z,0
2017-08-08T21:53:48.394Z,0
2017-08-08T21:54:16.378Z,0
2017-08-08T21:54:44.460Z,0
2017-08-08T21:55:12.254Z,0
2017-08-08T21:55:40.436Z,0
2017-08-08T21:56:08.601Z,0
2017-08-08T21:56:36.820Z,0
2017-08-08T21:57:05.000Z,0
2017-08-08T21:57:32.891Z,0
2017-08-08T21:58:00.886Z,0
2017-08-08T21:58:28.878Z,0
2017-08-08T21:58:56.853Z,0
2017-08-08T21:59:24.866Z,0
2017-08-08T21:59:52.927Z,0
2017-08-08T22:00:21.085Z,0
2017-08-08T22:00:49.163Z,0
2017-08-08T22:01:17.356Z,0
2017-08-08T22:01:45.248Z,0
2017-08-08T22:02:13.341Z,0
2017-08-08T22:02:41.325Z,0
2017-08-08T22:03:09.522Z,0
2017-08-08T22:03:37.417Z,0
2017-08-08T22:04:05.419Z,0
2017-08-08T22:04:33.493Z,0
2017-08-08T22:05:01.672Z,0
2017-08-08T22:05:29.641Z,0
2017-08-08T22:05:57.723Z,0
2017-08-08T22:06:25.900Z,0
2017-08-08T22:06:54.094Z,0
2017-08-08T22:07:22.170Z,0
2017-08-08T22:07:50.221Z,0
2017-08-08T22:08:18.202Z,0
2017-08-08T22:08:46.376Z,0
2017-08-08T22:09:14.438Z,0
2017-08-08T22:09:42.522Z,0
2017-08-08T22:10:10.506Z,0
2017-08-08T22:10:38.381Z,0
2017-08-08T22:11:06.587Z,0
2017-08-08T22:11:34.626Z,0
2017-08-08T22:12:02.914Z,0
2017-08-08T22:12:32.034Z,0
2017-08-08T22:13:00.111Z,0
2017-08-08T22:13:28.112Z,0
2017-08-08T22:13:56.177Z,0
2017-08-08T22:14:24.141Z,0
2017-08-08T22:14:52.310Z,0
2017-08-08T22:15:20.496Z,0
2017-08-08T22:15:49.072Z,0
2017-08-08T22:16:46.055Z,0
2017-08-08T22:17:14.261Z,0
2017-08-08T22:17:43.159Z,0
2017-08-08T22:18:11.228Z,0
2017-08-08T22:18:39.300Z,0
2017-08-08T22:19:07.291Z,0
2017-08-08T22:19:35.366Z,0
2017-08-08T22:20:03.453Z,0
2017-08-08T22:20:31.559Z,0
2017-08-08T22:20:59.737Z,0
2017-08-08T22:21:28.713Z,0
2017-08-08T22:22:11.271Z,0
2017-08-08T22:22:39.342Z,0
2017-08-08T22:23:07.471Z,0
2017-08-08T22:23:35.649Z,0
2017-08-08T22:24:03.820Z,0
2017-08-08T22:24:31.897Z,0
2017-08-08T22:25:00.067Z,0
2017-08-08T22:25:28.167Z,0
2017-08-08T22:25:56.228Z,0
2017-08-08T22:26:24.305Z,0
2017-08-08T22:26:52.294Z,0
2017-08-08T22:27:20.506Z,0
2017-08-08T22:27:48.694Z,0
2017-08-08T22:28:16.754Z,0
2017-08-08T22:28:44.727Z,0
2017-08-08T22:29:12.978Z,0
2017-08-08T22:29:41.061Z,0
2017-08-08T22:30:09.058Z,0
2017-08-08T22:30:37.239Z,0
2017-08-08T22:31:05.400Z,0
2017-08-08T22:31:33.568Z,0
2017-08-08T22:32:01.751Z,0
2017-08-08T22:32:29.902Z,0
2017-08-08T22:32:58.132Z,0
2017-08-08T22:33:26.307Z,0
2017-08-08T22:33:54.360Z,0
2017-08-08T22:34:22.441Z,0
2017-08-08T22:34:50.472Z,0
2017-08-08T22:35:18.601Z,0
2017-08-08T22:35:46.638Z,0
2017-08-08T22:36:14.780Z,0
2017-08-08T22:36:42.949Z,0
2017-08-08T22:37:11.042Z,0
2017-08-08T22:37:39.193Z,0
2017-08-08T22:38:07.359Z,0
2017-08-08T22:38:36.354Z,0
2017-08-08T22:39:04.338Z,0
2017-08-08T22:39:32.501Z,0
2017-08-08T22:40:00.680Z,0
2017-08-08T22:40:28.693Z,0
2017-08-08T22:40:56.800Z,0
2017-08-08T22:41:24.962Z,0
2017-08-08T22:41:53.345Z,0
2017-08-08T22:42:21.398Z,0
2017-08-08T22:42:49.594Z,0
2017-08-08T22:43:17.771Z,0
2017-08-08T22:43:45.654Z,0
2017-08-08T22:44:13.729Z,0
2017-08-08T22:44:41.807Z,0
2017-08-08T22:45:09.886Z,0
2017-08-08T22:45:37.969Z,0
2017-08-08T22:46:05.788Z,0
2017-08-08T22:46:34.715Z,0
2017-08-08T22:47:02.777Z,0
2017-08-08T22:47:30.764Z,0
2017-08-08T22:47:58.682Z,0
2017-08-08T22:48:26.760Z,0
2017-08-08T22:48:54.981Z,0
2017-08-08T22:49:23.310Z,0
2017-08-08T22:49:51.409Z,0
2017-08-08T22:50:19.565Z,0
2017-08-08T22:50:47.726Z,0
2017-08-08T22:51:15.887Z,0
2017-08-08T22:51:43.969Z,0
2017-08-08T22:52:12.139Z,0
2017-08-08T22:52:41.639Z,0
2017-08-08T22:53:11.010Z,0
2017-08-08T22:53:41.007Z,0
2017-08-08T22:54:10.502Z,0
2017-08-08T22:54:38.634Z,0
2017-08-08T22:55:06.542Z,0
2017-08-08T22:55:34.722Z,0
2017-08-08T22:56:03.029Z,0
2017-08-08T22:56:45.685Z,0
2017-08-08T22:57:13.734Z,0
2017-08-08T22:57:41.908Z,0
2017-08-08T22:58:09.987Z,0
2017-08-08T22:58:38.196Z,0
2017-08-08T22:59:06.194Z,0
2017-08-08T22:59:34.370Z,0
2017-08-08T23:00:02.520Z,0
2017-08-08T23:00:30.935Z,0
2017-08-08T23:00:58.916Z,0
2017-08-08T23:01:26.985Z,0
2017-08-08T23:01:55.054Z,0
2017-08-08T23:02:23.248Z,0
2017-08-08T23:02:51.330Z,0
2017-08-08T23:03:19.401Z,0
2017-08-08T23:03:47.492Z,0
2017-08-08T23:04:15.668Z,0
2017-08-08T23:04:43.850Z,0
2017-08-08T23:05:12.212Z,0
2017-08-08T23:05:40.283Z,0
2017-08-08T23:06:08.476Z,0
2017-08-08T23:06:36.876Z,0
2017-08-08T23:07:04.975Z,0
2017-08-08T23:07:33.048Z,0
2017-08-08T23:08:01.158Z,0
2017-08-08T23:08:29.363Z,0
2017-08-08T23:08:57.548Z,0
2017-08-08T23:09:25.736Z,0
2017-08-08T23:09:54.179Z,0
2017-08-08T23:10:22.464Z,0
2017-08-08T23:10:50.464Z,0
2017-08-08T23:11:32.930Z,0
2017-08-08T23:12:01.029Z,0
2017-08-08T23:12:29.136Z,0
2017-08-08T23:12:57.040Z,0
2017-08-08T23:13:25.199Z,0
2017-08-08T23:13:53.350Z,0
2017-08-08T23:14:21.577Z,0
2017-08-08T23:14:49.594Z,0
2017-08-08T23:15:17.571Z,0
2017-08-08T23:15:45.890Z,0
2017-08-08T23:16:13.886Z,0
2017-08-08T23:16:41.927Z,0
2017-08-08T23:17:10.112Z,0
2017-08-08T23:17:38.302Z,0
2017-08-08T23:18:06.489Z,0
2017-08-08T23:18:34.470Z,0
2017-08-08T23:19:02.646Z,0
2017-08-08T23:19:30.629Z,0
2017-08-08T23:19:58.702Z,0
2017-08-08T23:20:27.060Z,0
2017-08-08T23:20:55.049Z,0
2017-08-08T23:21:23.282Z,0
2017-08-08T23:21:51.257Z,0
2017-08-08T23:22:19.250Z,0
2017-08-08T23:22:47.143Z,0
2017-08-08T23:23:15.238Z,0
2017-08-08T23:23:43.322Z,0
2017-08-08T23:24:11.484Z,0
2017-08-08T23:24:39.670Z,0
2017-08-08T23:25:07.820Z,0
2017-08-08T23:25:35.910Z,0
2017-08-08T23:26:03.884Z,0
2017-08-08T23:26:31.985Z,0
2017-08-08T23:27:00.073Z,0
2017-08-08T23:27:28.248Z,0
2017-08-08T23:27:56.423Z,0
2017-08-08T23:28:24.577Z,0
2017-08-08T23:28:52.794Z,0
2017-08-08T23:29:21.234Z,0
2017-08-08T23:29:49.405Z,0
2017-08-08T23:30:17.499Z,0
2017-08-08T23:30:45.738Z,0
2017-08-08T23:31:13.915Z,0
2017-08-08T23:31:42.142Z,0
2017-08-08T23:32:10.224Z,0
2017-08-08T23:32:38.404Z,0
2017-08-08T23:33:06.450Z,0
2017-08-08T23:33:34.402Z,0
2017-08-08T23:34:02.603Z,0
2017-08-08T23:34:30.682Z,0
2017-08-08T23:34:58.792Z,0
2017-08-08T23:35:26.963Z,0
2017-08-08T23:35:55.074Z,0
2017-08-08T23:36:23.245Z,0
2017-08-08T23:36:51.346Z,0
2017-08-08T23:37:19.417Z,0
2017-08-08T23:37:47.222Z,0
2017-08-08T23:38:15.227Z,0
2017-08-08T23:38:43.294Z,0
2017-08-08T23:39:11.392Z,0
2017-08-08T23:39:39.669Z,0
2017-08-08T23:40:07.839Z,0
2017-08-08T23:40:35.920Z,0
2017-08-08T23:41:03.917Z,0
2017-08-08T23:41:31.886Z,0
2017-08-08T23:42:00.005Z,0
2017-08-08T23:42:28.091Z,0
2017-08-08T23:42:56.256Z,0
2017-08-08T23:43:24.440Z,0
2017-08-08T23:44:06.905Z,0
2017-08-08T23:44:35.083Z,0
2017-08-08T23:45:03.314Z,0
2017-08-08T23:45:31.368Z,0
2017-08-08T23:45:59.470Z,0
2017-08-08T23:46:28.444Z,0
2017-08-08T23:46:56.771Z,0
2017-08-08T23:47:24.852Z,0
2017-08-08T23:47:52.835Z,0
2017-08-08T23:48:20.994Z,0
2017-08-08T23:48:48.979Z,0
2017-08-08T23:49:16.867Z,0
2017-08-08T23:49:44.855Z,0
2017-08-08T23:50:12.877Z,0
2017-08-08T23:50:41.164Z,0
2017-08-08T23:51:09.333Z,0
2017-08-08T23:51:37.319Z,0
2017-08-08T23:52:05.389Z,0
2017-08-08T23:52:33.501Z,0
2017-08-08T23:53:01.478Z,0
2017-08-08T23:53:29.361Z,0
2017-08-08T23:53:57.153Z,0
2017-08-08T23:54:25.516Z,0
2017-08-08T23:54:53.742Z,0
2017-08-08T23:55:21.822Z,0
2017-08-08T23:55:49.814Z,0
2017-08-08T23:56:18.225Z,0
2017-08-08T23:56:46.212Z,0
2017-08-08T23:57:14.131Z,0
2017-08-08T23:57:42.199Z,0
2017-08-08T23:58:10.264Z,0
2017-08-08T23:58:38.440Z,0
2017-08-08T23:59:06.513Z,0
2017-08-08T23:59:34.581Z,0
